Time;durP1;ratioP1;P1;durP2;ratioP2;P2;SDS_P1;SDS_P2;PMS_P1;PMS_P2;Temp;Humidity;BMP_temperature;BMP_pressure;BME280_temperature;BME280_humidity;BME280_pressure;Samples;Min_cycle;Max_cycle;Signal;HPM_P1;HPM_P2
2022/12/24 00:01:21;;;;;;;10.70;1.60;;;11.70;99.90;;;11.72;100.00;100208.97;5205964;28;20053;-69
2022/12/24 00:03:54;;;;;;;7.53;1.23;;;11.80;99.90;;;11.66;100.00;100213.19;5188097;28;20449;-69
2022/12/24 00:06:28;;;;;;;5.10;1.10;;;11.70;99.90;;;11.63;100.00;100220.97;5204438;28;20441;-71
2022/12/24 00:09:00;;;;;;;10.07;1.80;;;11.70;99.90;;;11.59;100.00;100228.69;5186462;28;20425;-68
2022/12/24 00:11:32;;;;;;;7.35;1.15;;;11.60;99.90;;;11.54;100.00;100227.72;5204969;28;20418;-70
2022/12/24 00:14:05;;;;;;;6.38;1.60;;;11.60;99.90;;;11.53;100.00;100219.00;5204827;28;20126;-67
2022/12/24 00:16:37;;;;;;;5.90;1.20;;;11.60;99.90;;;11.50;100.00;100218.94;5204835;28;20045;-67
2022/12/24 00:19:09;;;;;;;5.68;1.50;;;11.50;99.90;;;11.49;100.00;100227.63;5204089;28;20095;-68
2022/12/24 00:21:42;;;;;;;4.30;0.93;;;11.50;99.90;;;11.48;100.00;100233.69;5204721;28;20042;-68
2022/12/24 00:24:15;;;;;;;5.32;1.00;;;11.50;99.90;;;11.46;100.00;100237.97;5204597;28;20046;-69
2022/12/24 00:26:47;;;;;;;10.05;1.70;;;11.50;99.90;;;11.43;100.00;100247.50;5204567;28;20045;-68
2022/12/24 00:29:19;;;;;;;5.80;1.20;;;11.50;99.90;;;11.38;100.00;100248.25;5204499;28;20049;-67
2022/12/24 00:31:51;;;;;;;8.60;1.65;;;11.40;99.90;;;11.36;100.00;100247.34;5204814;28;20045;-69
2022/12/24 00:34:23;;;;;;;5.57;1.17;;;11.40;99.90;;;11.32;100.00;100245.50;5205381;28;20042;-72
2022/12/24 00:36:57;;;;;;;5.13;1.17;;;11.40;99.90;;;11.30;100.00;100246.34;5205614;28;20050;-69
2022/12/24 00:39:29;;;;;;;6.70;1.40;;;11.40;99.90;;;11.29;100.00;100239.34;5204802;28;20124;-71
2022/12/24 00:42:01;;;;;;;9.25;1.60;;;11.30;99.90;;;11.28;100.00;100242.78;5204476;28;20417;-69
2022/12/24 00:44:33;;;;;;;7.25;1.13;;;11.30;99.90;;;11.28;100.00;100240.16;5204076;28;20413;-67
2022/12/24 00:47:05;;;;;;;4.97;1.20;;;11.30;99.90;;;11.29;100.00;100250.66;5204162;28;20525;-68
2022/12/24 00:49:37;;;;;;;8.60;1.15;;;11.30;99.90;;;11.32;100.00;100255.06;5211257;28;20049;-70
2022/12/24 00:52:11;;;;;;;5.20;1.10;;;11.30;99.90;;;11.33;100.00;100249.00;5222169;28;20040;-67
2022/12/24 00:54:43;;;;;;;3.60;0.88;;;11.40;99.90;;;11.35;100.00;100258.66;5225117;28;20083;-67
2022/12/24 00:57:15;;;;;;;5.80;0.93;;;11.40;99.90;;;11.36;100.00;100262.13;5209622;28;20041;-67
2022/12/24 00:59:47;;;;;;;5.30;1.08;;;11.40;99.90;;;11.37;100.00;100262.16;5202852;28;20047;-67
2022/12/24 01:02:19;;;;;;;3.78;1.25;;;11.40;99.90;;;11.37;100.00;100248.22;5186666;28;20140;-68
2022/12/24 01:07:42;;;;;;;5.07;1.25;;;11.40;99.90;;;11.37;100.00;100258.66;5201290;28;20087;-68
2022/12/24 01:10:19;;;;;;;4.63;1.08;;;11.40;99.90;;;11.39;100.00;100256.97;5203905;28;20045;-67
2022/12/24 01:12:52;;;;;;;4.93;0.95;;;11.40;99.90;;;11.40;100.00;100267.44;5207372;28;20041;-68
2022/12/24 01:15:24;;;;;;;5.70;1.15;;;11.40;99.90;;;11.41;100.00;100265.72;5206870;28;20120;-69
2022/12/24 01:17:57;;;;;;;5.68;1.10;;;11.40;99.90;;;11.42;100.00;100275.31;5207108;28;20042;-68
2022/12/24 01:20:31;;;;;;;4.03;0.93;;;11.40;99.90;;;11.44;100.00;100267.53;5206981;28;20049;-68
2022/12/24 01:23:05;;;;;;;4.43;1.20;;;11.40;99.90;;;11.45;100.00;100283.22;5207436;28;20041;-68
2022/12/24 01:25:38;;;;;;;3.72;1.02;;;11.50;99.90;;;11.47;100.00;100291.06;5208664;28;20044;-68
2022/12/24 01:28:10;;;;;;;3.15;1.02;;;11.50;99.90;;;11.48;100.00;100292.84;5207600;28;20052;-69
2022/12/24 01:30:43;;;;;;;6.40;1.08;;;11.50;99.90;;;11.48;100.00;100293.72;5207973;28;20053;-68
2022/12/24 01:33:15;;;;;;;7.40;2.10;;;11.50;99.90;;;11.50;100.00;100294.63;5208404;28;20064;-67
2022/12/24 01:35:47;;;;;;;3.85;0.98;;;11.50;99.90;;;11.51;100.00;100293.78;5190130;28;20059;-68
2022/12/24 01:38:21;;;;;;;5.55;1.17;;;11.50;99.90;;;11.52;100.00;100297.28;5207159;28;20045;-67
2022/12/24 01:43:43;;;;;;;4.75;0.90;;;11.50;99.90;;;11.55;100.00;100294.75;5207476;28;20490;-68
2022/12/24 01:46:20;;;;;;;3.67;1.00;;;11.60;99.90;;;11.54;100.00;100301.72;5207403;28;20049;-67
2022/12/24 01:48:56;;;;;;;6.53;1.38;;;11.50;99.90;;;11.53;100.00;100302.53;5207470;28;20045;-68
2022/12/24 01:51:34;;;;;;;4.88;1.15;;;11.50;99.90;;;11.53;100.00;100306.88;5207765;28;20053;-67
2022/12/24 01:54:17;;;;;;;6.53;0.93;;;11.50;99.90;;;11.53;100.00;100312.97;5189698;28;20041;-67
2022/12/24 01:56:52;;;;;;;5.55;1.13;;;11.60;99.90;;;11.54;100.00;100306.94;5207316;28;20057;-67
2022/12/24 01:59:25;;;;;;;4.95;1.48;;;11.60;99.90;;;11.51;100.00;100306.84;5189128;28;20054;-68
2022/12/24 02:01:57;;;;;;;6.25;1.40;;;11.50;99.90;;;11.50;100.00;100312.91;5206787;28;20056;-68
2022/12/24 02:04:37;;;;;;;4.43;1.02;;;11.60;99.90;;;11.48;100.00;100327.66;5207299;28;20469;-67
2022/12/24 02:07:09;;;;;;;5.60;0.95;;;11.50;99.90;;;11.44;100.00;100320.59;5206896;28;20041;-67
2022/12/24 02:09:44;;;;;;;7.47;1.23;;;11.50;99.90;;;11.41;100.00;100317.94;5206395;28;20077;-68
2022/12/24 02:12:16;;;;;;;6.40;1.30;;;11.40;99.90;;;11.38;100.00;100320.44;5206850;28;20059;-67
2022/12/24 02:14:48;;;;;;;6.53;1.30;;;11.40;99.90;;;11.36;100.00;100329.97;5207290;28;20130;-68
2022/12/24 02:17:30;;;;;;;3.35;0.82;;;11.40;99.90;;;11.33;100.00;100340.31;5206461;28;20045;-68
2022/12/24 02:20:46;;;;;;;7.75;1.60;;;11.40;99.90;;;11.29;100.00;100344.59;5206965;28;20053;-67
2022/12/24 02:24:11;;;;;;;5.90;1.58;;;11.40;99.90;;;11.26;100.00;100346.25;5102886;29;20055;-68
2022/12/24 02:27:09;;;;;;;5.82;1.42;;;11.30;99.90;;;11.25;100.00;100352.31;5173044;28;20053;-67
2022/12/24 02:30:06;;;;;;;5.80;1.15;;;11.30;99.90;;;11.22;100.00;100363.56;5206629;28;20506;-67
2022/12/24 02:32:53;;;;;;;6.80;1.30;;;11.30;99.90;;;11.20;100.00;100365.22;5194883;28;20053;-67
2022/12/24 02:35:37;;;;;;;6.85;1.00;;;11.30;99.90;;;11.18;100.00;100366.03;5206304;28;20049;-67
2022/12/24 02:38:20;;;;;;;4.45;1.23;;;11.20;99.90;;;11.16;100.00;100376.44;5205713;28;20052;-68
2022/12/24 02:40:58;;;;;;;9.00;1.20;;;11.20;99.90;;;11.13;100.00;100369.41;5206547;28;20046;-69
2022/12/24 02:43:36;;;;;;;5.50;2.00;;;11.20;99.90;;;11.12;100.00;100375.47;5206488;28;20121;-69
2022/12/24 02:46:14;;;;;;;5.63;1.15;;;11.20;99.90;;;11.12;100.00;100379.81;5206697;28;20041;-68
2022/12/24 02:48:49;;;;;;;6.63;1.10;;;11.20;99.90;;;11.12;100.00;100378.06;5205822;28;20513;-68
2022/12/24 02:51:24;;;;;;;4.35;1.40;;;11.20;99.90;;;11.13;100.00;100382.44;5206671;28;20041;-67
2022/12/24 02:53:58;;;;;;;5.47;1.10;;;11.20;99.90;;;11.16;100.00;100383.38;5206032;28;20075;-67
2022/12/24 02:56:58;;;;;;;6.45;1.48;;;11.20;99.90;;;11.16;100.00;100386.88;5206526;28;20045;-67
2022/12/24 02:59:51;;;;;;;4.97;1.23;;;11.20;99.90;;;11.18;100.00;100394.75;5205372;28;20057;-67
2022/12/24 03:02:37;;;;;;;4.68;1.35;;;11.20;99.90;;;11.20;100.00;100404.34;5205899;28;20079;-67
2022/12/24 03:05:20;;;;;;;4.47;1.02;;;11.20;99.90;;;11.21;100.00;100400.03;5205805;28;20054;-67
2022/12/24 03:08:02;;;;;;;6.93;1.13;;;11.20;99.90;;;11.23;100.00;100403.56;5205099;28;20057;-68
2022/12/24 03:10:48;;;;;;;3.95;1.23;;;11.30;99.90;;;11.23;100.00;100400.97;5205745;28;20046;-68
2022/12/24 03:13:23;;;;;;;3.88;1.10;;;11.30;99.90;;;11.22;100.00;100394.88;5188150;28;20052;-66
2022/12/24 03:15:55;;;;;;;5.45;1.15;;;11.30;99.90;;;11.24;100.00;100398.38;5205753;28;20383;-68
2022/12/24 03:18:30;;;;;;;6.57;1.17;;;11.30;99.90;;;11.25;100.00;100401.88;5205465;28;20037;-68
2022/12/24 03:21:07;;;;;;;4.30;1.05;;;11.30;99.90;;;11.27;100.00;100408.88;5205764;28;20042;-69
2022/12/24 03:23:40;;;;;;;4.00;1.05;;;11.30;99.90;;;11.28;100.00;100404.56;5187993;28;20049;-67
2022/12/24 03:26:16;;;;;;;5.97;1.08;;;11.30;99.90;;;11.29;100.00;100408.94;5205690;28;20487;-68
2022/12/24 03:28:50;;;;;;;2.90;1.23;;;11.30;99.90;;;11.31;100.00;100404.66;5205321;28;20049;-67
2022/12/24 03:31:23;;;;;;;5.47;1.13;;;11.30;99.90;;;11.32;100.00;100416.84;5187556;28;20143;-68
2022/12/24 03:33:58;;;;;;;2.75;0.80;;;11.30;99.90;;;11.32;100.00;100422.94;5205497;28;20037;-68
2022/12/24 03:36:30;;;;;;;4.53;0.93;;;11.30;99.90;;;11.32;100.00;100422.94;5205598;28;20049;-69
2022/12/24 03:39:03;;;;;;;4.13;0.80;;;11.30;99.90;;;11.33;100.00;100429.91;5204797;28;20502;-68
2022/12/24 03:41:35;;;;;;;3.28;0.88;;;11.40;99.90;;;11.35;100.00;100440.44;5205336;28;20048;-67
2022/12/24 03:44:07;;;;;;;5.90;1.38;;;11.40;99.90;;;11.34;100.00;100438.63;5205597;28;20406;-67
2022/12/24 03:46:40;;;;;;;3.63;0.63;;;11.40;99.90;;;11.34;100.00;100442.13;5187742;28;20053;-68
2022/12/24 03:49:14;;;;;;;5.03;0.82;;;11.40;99.90;;;11.34;100.00;100442.13;5204928;28;20055;-67
2022/12/24 03:51:47;;;;;;;2.67;0.82;;;11.40;99.90;;;11.33;100.00;100434.25;5205000;28;20041;-68
2022/12/24 03:54:19;;;;;;;1.23;0.57;;;11.30;99.90;;;11.31;100.00;100442.06;5205507;28;20045;-68
2022/12/24 03:56:51;;;;;;;3.88;0.70;;;11.30;99.90;;;11.29;100.00;100441.16;5205311;28;20395;-69
2022/12/24 03:59:23;;;;;;;1.77;0.85;;;11.30;99.90;;;11.26;100.00;100438.44;5204869;28;20387;-68
2022/12/24 04:01:55;;;;;;;2.72;1.00;;;11.30;99.90;;;11.24;100.00;100431.44;5204996;28;20502;-68
2022/12/24 04:04:29;;;;;;;4.05;0.85;;;11.30;99.90;;;11.20;100.00;100442.59;5204819;28;20486;-68
2022/12/24 04:07:01;;;;;;;5.25;0.90;;;11.30;99.90;;;11.16;100.00;100446.00;5205070;28;20056;-68
2022/12/24 04:09:33;;;;;;;4.28;0.90;;;11.20;99.90;;;11.10;100.00;100431.94;5204964;28;20095;-68
2022/12/24 04:12:06;;;;;;;2.50;0.82;;;11.20;99.90;;;11.07;100.00;100441.41;5205235;28;20045;-68
2022/12/24 04:14:38;;;;;;;4.57;0.93;;;11.10;99.90;;;11.04;100.00;100446.53;5205403;28;20490;-69
2022/12/24 04:17:10;;;;;;;2.05;0.65;;;11.10;99.90;;;11.01;100.00;100442.09;5205791;28;20080;-68
2022/12/24 04:19:43;;;;;;;2.63;0.80;;;11.10;99.90;;;10.98;100.00;100444.66;5205159;28;20052;-67
2022/12/24 04:22:15;;;;;;;2.10;0.80;;;11.00;99.90;;;10.96;100.00;100454.16;5205812;28;20102;-69
2022/12/24 04:24:48;;;;;;;1.77;0.73;;;11.00;99.90;;;10.93;100.00;100441.03;5205416;28;20034;-67
2022/12/24 04:27:20;;;;;;;2.45;1.00;;;11.00;99.90;;;10.90;100.00;100446.16;5205161;28;20053;-67
2022/12/24 04:29:52;;;;;;;2.30;0.82;;;11.00;99.90;;;10.88;100.00;100455.66;5187830;28;20046;-68
2022/12/24 04:32:26;;;;;;;2.10;0.70;;;10.90;99.90;;;10.86;100.00;100457.34;5205382;28;20141;-68
2022/12/24 04:35:00;;;;;;;2.88;0.82;;;10.90;99.90;;;10.85;100.00;100455.56;5205092;28;20041;-68
2022/12/24 04:37:34;;;;;;;4.15;0.65;;;10.90;99.90;;;10.84;100.00;100443.38;5204873;28;20049;-68
2022/12/24 04:40:08;;;;;;;1.73;0.60;;;10.90;99.90;;;10.81;100.00;100453.72;5204869;28;20042;-68
2022/12/24 04:42:40;;;;;;;2.00;0.60;;;10.80;99.90;;;10.79;100.00;100461.50;5205075;28;20055;-67
2022/12/24 04:45:12;;;;;;;1.80;0.70;;;10.80;99.90;;;10.76;100.00;100465.75;5204380;28;20044;-68
2022/12/24 04:47:44;;;;;;;2.50;1.58;;;10.80;99.90;;;10.72;100.00;100475.19;5204309;28;20049;-66
2022/12/24 04:50:19;;;;;;;2.08;0.55;;;10.80;99.90;;;10.71;100.00;100473.44;5204774;28;20056;-67
2022/12/24 04:52:51;;;;;;;1.02;0.60;;;10.70;99.90;;;10.69;100.00;100469.00;5204341;28;20045;-67
2022/12/24 04:55:23;;;;;;;2.42;0.80;;;10.70;99.90;;;10.69;100.00;100476.81;5204384;28;20045;-67
2022/12/24 04:57:56;;;;;;;0.90;0.50;;;10.70;99.90;;;10.67;100.00;100476.78;5203919;28;20037;-68
2022/12/24 05:00:28;;;;;;;1.38;0.52;;;10.70;99.90;;;10.66;100.00;100484.56;5204431;28;20048;-67
2022/12/24 05:03:00;;;;;;;0.65;0.40;;;10.70;99.90;;;10.64;100.00;100471.50;5204507;28;20045;-68
2022/12/24 05:05:33;;;;;;;1.20;0.47;;;10.70;99.90;;;10.62;100.00;100461.84;5204223;28;20509;-67
2022/12/24 05:08:06;;;;;;;0.43;0.43;;;10.60;99.90;;;10.57;100.00;100465.22;5204426;28;20182;-67
2022/12/24 05:10:38;;;;;;;1.50;0.43;;;10.60;99.90;;;10.56;100.00;100471.28;5204261;28;20045;-67
2022/12/24 05:13:10;;;;;;;1.38;0.50;;;10.60;99.90;;;10.52;100.00;100461.59;5308834;22;20047;-71
2022/12/24 05:15:44;;;;;;;0.68;0.52;;;10.60;99.90;;;10.50;100.00;100462.38;5216616;28;20049;-71
2022/12/24 05:18:16;;;;;;;0.55;0.50;;;10.50;99.90;;;10.47;100.00;100468.38;5203006;28;20049;-71
2022/12/24 05:20:50;;;;;;;0.57;0.50;;;10.50;99.90;;;10.46;100.00;100470.94;5202044;28;20061;-72
2022/12/24 05:26:22;;;;;;;0.68;0.43;;;10.50;99.90;;;10.40;100.00;100474.25;5186006;28;20069;-72
2022/12/24 05:28:57;;;;;;;0.30;0.30;;;10.40;99.90;;;10.40;100.00;100483.78;5184751;28;20053;-72
2022/12/24 05:31:33;;;;;;;0.90;0.43;;;10.40;99.90;;;10.39;100.00;100490.72;5185942;28;20059;-70
2022/12/24 05:34:05;;;;;;;0.43;0.43;;;10.40;99.90;;;10.39;100.00;100484.63;5203259;28;20492;-73
2022/12/24 05:36:38;;;;;;;0.20;0.20;;;10.40;99.90;;;10.40;100.00;100487.28;5203893;28;20405;-72
2022/12/24 05:39:14;;;;;;;0.50;0.47;;;10.40;99.90;;;10.40;100.00;100487.28;5203175;28;20056;-70
2022/12/24 05:41:47;;;;;;;0.35;0.32;;;10.40;99.90;;;10.41;100.00;100494.25;5203630;28;20049;-70
2022/12/24 05:44:19;;;;;;;0.82;0.50;;;10.40;99.90;;;10.41;100.00;100491.63;5202563;28;20089;-71
2022/12/24 05:46:52;;;;;;;0.45;0.30;;;10.40;99.90;;;10.43;100.00;100500.41;5203372;28;20216;-70
2022/12/24 05:49:26;;;;;;;0.68;0.63;;;10.40;99.90;;;10.44;100.00;100491.75;5203092;28;20046;-71
2022/12/24 05:51:59;;;;;;;1.45;0.43;;;10.50;99.90;;;10.43;100.00;100497.81;5203456;28;20038;-72
2022/12/24 05:54:31;;;;;;;3.42;0.80;;;10.40;99.90;;;10.43;100.00;100503.00;5185539;28;20053;-70
2022/12/24 05:57:04;;;;;;;2.85;0.80;;;10.50;99.90;;;10.47;100.00;100514.41;5203454;28;20046;-72
2022/12/24 05:59:36;;;;;;;2.53;0.77;;;10.50;99.90;;;10.47;100.00;100514.41;5188984;28;20037;-74
2022/12/24 06:02:08;;;;;;;1.85;0.75;;;10.50;99.90;;;10.46;100.00;100513.53;5207240;28;20073;-73
2022/12/24 06:04:40;;;;;;;2.45;0.65;;;10.50;99.90;;;10.47;100.00;100506.59;5206769;28;20084;-72
2022/12/24 06:07:14;;;;;;;0.93;0.57;;;10.50;99.90;;;10.47;100.00;100515.28;5207065;28;20387;-71
2022/12/24 06:09:46;;;;;;;0.93;0.80;;;10.50;99.90;;;10.46;100.00;100525.66;5206856;28;20052;-70
2022/12/24 06:12:19;;;;;;;0.98;0.57;;;10.50;99.90;;;10.48;100.00;100505.75;5207066;28;20049;-71
2022/12/24 06:14:51;;;;;;;0.85;0.57;;;10.50;99.90;;;10.47;100.00;100510.06;5207181;28;20120;-71
2022/12/24 06:17:23;;;;;;;2.00;0.63;;;10.50;99.90;;;10.47;100.00;100510.06;5206461;28;20046;-72
2022/12/24 06:19:55;;;;;;;1.58;0.55;;;10.50;99.90;;;10.47;100.00;100515.28;5206767;28;20414;-71
2022/12/24 06:22:29;;;;;;;1.55;0.52;;;10.50;99.90;;;10.48;100.00;100517.03;5189141;28;20057;-71
2022/12/24 06:25:01;;;;;;;0.75;0.43;;;10.50;99.90;;;10.47;100.00;100515.28;5206710;28;20052;-71
2022/12/24 06:27:33;;;;;;;0.68;0.63;;;10.50;99.90;;;10.47;100.00;100525.72;5188477;28;20049;-71
2022/12/24 06:30:07;;;;;;;2.25;0.68;;;10.50;99.90;;;10.47;100.00;100528.31;5206726;28;20056;-72
2022/12/24 06:32:40;;;;;;;2.67;0.77;;;10.50;99.90;;;10.45;100.00;100534.31;5207023;28;20050;-72
2022/12/24 06:35:13;;;;;;;1.83;0.80;;;10.50;99.90;;;10.42;100.00;100540.31;5206419;28;20044;-70
2022/12/24 06:37:46;;;;;;;2.33;0.82;;;10.40;99.90;;;10.40;100.00;100542.00;5206425;28;20544;-71
2022/12/24 06:40:18;;;;;;;1.83;0.70;;;10.40;99.90;;;10.39;100.00;100542.84;5206281;28;20072;-72
2022/12/24 06:42:50;;;;;;;1.60;0.73;;;10.40;99.90;;;10.39;100.00;100548.03;5206600;28;20048;-71
2022/12/24 06:45:22;;;;;;;1.25;0.73;;;10.40;99.90;;;10.38;100.00;100540.19;5206298;28;20132;-70
2022/12/24 06:47:55;;;;;;;2.83;1.20;;;10.40;99.90;;;10.37;100.00;100549.72;5205978;28;20049;-71
2022/12/24 06:50:27;;;;;;;1.67;1.00;;;10.40;99.90;;;10.37;100.00;100554.94;5206321;28;20041;-71
2022/12/24 06:53:01;;;;;;;2.40;1.02;;;10.40;99.90;;;10.36;100.00;100552.25;5206254;28;20061;-71
2022/12/24 06:55:33;;;;;;;2.78;0.90;;;10.40;99.90;;;10.35;100.00;100563.53;5206194;28;20116;-71
2022/12/24 06:58:05;;;;;;;2.90;0.93;;;10.40;99.90;;;10.34;100.00;100565.25;5205910;28;20045;-71
2022/12/24 07:00:37;;;;;;;2.47;0.93;;;10.40;99.90;;;10.35;100.00;100577.44;5206110;28;20077;-70
2022/12/24 07:03:10;;;;;;;1.13;0.93;;;10.40;99.90;;;10.37;100.00;100578.38;5205809;28;20045;-71
2022/12/24 07:05:42;;;;;;;2.35;0.90;;;10.40;99.90;;;10.37;100.00;100581.00;5205551;28;20041;-59
2022/12/24 07:08:16;;;;;;;1.73;1.00;;;10.40;99.90;;;10.39;100.00;100589.72;5204881;28;20064;-59
2022/12/24 07:10:49;;;;;;;1.92;0.70;;;10.40;99.90;;;10.41;100.00;100588.06;5205941;28;20042;-60
2022/12/24 07:13:21;;;;;;;2.75;0.90;;;10.40;99.90;;;10.40;100.00;100583.69;5205747;28;20115;-60
2022/12/24 07:15:58;;;;;;;1.88;0.80;;;10.40;99.90;;;10.42;100.00;100584.59;5187833;28;20528;-61
2022/12/24 07:18:31;;;;;;;1.45;0.90;;;10.40;99.90;;;10.41;100.00;100588.06;5205268;28;20053;-59
2022/12/24 07:21:04;;;;;;;3.05;0.77;;;10.40;99.90;;;10.41;100.00;100593.25;5205555;28;20049;-59
2022/12/24 07:23:38;;;;;;;3.30;1.05;;;10.40;99.90;;;10.40;100.00;100599.31;5205580;28;20116;-59
2022/12/24 07:26:11;;;;;;;1.77;0.95;;;10.40;99.90;;;10.41;100.00;100597.59;5205052;28;20053;-59
2022/12/24 07:28:43;;;;;;;1.25;0.70;;;10.40;99.90;;;10.42;100.00;100602.84;5205059;28;20048;-59
2022/12/24 07:31:15;;;;;;;2.95;1.13;;;10.40;99.90;;;10.41;100.00;100606.28;5205137;28;20052;-60
2022/12/24 07:33:47;;;;;;;2.25;1.25;;;10.40;99.90;;;10.43;100.00;100616.75;5205422;28;20052;-59
2022/12/24 07:36:21;;;;;;;3.45;1.00;;;10.40;99.90;;;10.44;100.00;100616.84;5205183;28;20494;-60
2022/12/24 07:38:55;;;;;;;4.22;0.88;;;10.40;99.90;;;10.47;100.00;100616.03;5186890;28;20049;-59
2022/12/24 07:41:27;;;;;;;3.40;0.82;;;10.50;99.90;;;10.45;100.00;100621.19;5204804;28;20095;-61
2022/12/24 07:43:59;;;;;;;2.45;1.00;;;10.50;99.90;;;10.48;100.00;100621.28;5205265;28;20049;-60
2022/12/24 07:46:31;;;;;;;2.20;1.10;;;10.50;99.90;;;10.49;100.00;100620.44;5204865;28;20038;-61
2022/12/24 07:49:04;;;;;;;2.05;0.77;;;10.50;99.90;;;10.50;100.00;100624.84;5204861;28;20083;-60
2022/12/24 07:51:36;;;;;;;3.13;0.90;;;10.50;99.90;;;10.52;100.00;100625.78;5204928;28;20155;-61
2022/12/24 07:54:09;;;;;;;2.38;1.00;;;10.50;99.90;;;10.54;100.00;100620.59;5205022;28;20045;-60
2022/12/24 07:56:43;;;;;;;1.95;0.80;;;10.50;99.90;;;10.55;100.00;100624.97;5204818;28;20042;-61
2022/12/24 07:59:15;;;;;;;4.30;1.52;;;10.60;99.90;;;10.57;100.00;100624.22;5204252;28;20077;-59
2022/12/24 08:01:47;;;;;;;0.77;0.77;;;10.60;99.90;;;10.57;100.00;100626.81;5204731;28;20056;-61
2022/12/24 08:04:19;;;;;;;2.08;0.88;;;10.60;99.90;;;10.59;100.00;100619.91;5203334;28;20418;-59
2022/12/24 08:06:51;;;;;;;3.72;1.08;;;10.60;99.90;;;10.62;100.00;100628.66;5204666;28;20050;-59
2022/12/24 08:09:25;;;;;;;2.42;0.88;;;10.60;99.90;;;10.63;100.00;100638.25;5204340;28;20130;-60
2022/12/24 08:11:57;;;;;;;2.33;0.85;;;10.60;99.90;;;10.64;100.00;100640.03;5204660;28;20064;-60
2022/12/24 08:14:29;;;;;;;1.17;0.90;;;10.60;99.90;;;10.65;100.00;100639.22;5204595;28;20079;-60
2022/12/24 08:17:01;;;;;;;2.97;1.38;;;10.60;99.90;;;11.19;100.00;100646.97;5204487;28;20108;-59
2022/12/24 08:19:33;;;;;;;3.22;1.10;;;11.30;99.90;;;11.49;100.00;100650.47;5204729;28;20414;-58
2022/12/24 08:22:05;;;;;;;5.10;1.50;;;11.50;99.90;;;11.48;100.00;100659.16;5204381;28;20043;-58
2022/12/24 08:24:39;;;;;;;4.35;1.40;;;11.50;99.90;;;11.42;100.00;100653.75;5204401;28;20045;-58
2022/12/24 08:27:11;;;;;;;3.50;1.10;;;11.50;99.90;;;11.33;100.00;100650.84;5203232;28;20050;-59
2022/12/24 08:29:43;;;;;;;3.22;1.30;;;11.40;99.90;;;11.27;100.00;100648.94;5203172;28;20414;-59
2022/12/24 08:32:15;;;;;;;3.25;1.00;;;11.30;99.90;;;11.25;100.00;100649.75;5203148;28;20045;-58
2022/12/24 08:34:47;;;;;;;3.30;1.20;;;11.30;99.90;;;11.24;100.00;100663.63;5204057;28;20056;-59
2022/12/24 08:37:19;;;;;;;7.18;1.60;;;11.30;99.90;;;11.26;100.00;100662.84;5203589;28;20417;-58
2022/12/24 08:39:53;;;;;;;4.07;1.88;;;11.30;99.90;;;11.31;100.00;100661.25;5204496;28;20083;-60
2022/12/24 08:42:25;;;;;;;4.38;1.25;;;11.30;99.90;;;11.40;100.00;100661.50;5204076;28;20045;-58
2022/12/24 08:44:57;;;;;;;3.60;1.58;;;11.40;99.90;;;11.49;100.00;100666.13;5201724;28;20080;-59
2022/12/24 08:47:29;;;;;;;4.53;1.27;;;11.40;99.90;;;11.56;100.00;100672.41;5194986;28;20064;-59
2022/12/24 08:50:01;;;;;;;6.05;1.95;;;11.50;99.90;;;11.60;100.00;100675.13;5203624;28;20079;-58
2022/12/24 08:52:33;;;;;;;6.45;1.70;;;11.50;99.90;;;11.60;100.00;100680.34;5204198;28;20046;-58
2022/12/24 08:55:08;;;;;;;6.88;1.48;;;11.60;99.90;;;11.61;100.00;100679.53;5204006;28;20477;-58
2022/12/24 08:57:40;;;;;;;7.25;1.80;;;11.60;99.90;;;11.62;100.00;100681.31;5203325;28;20046;-60
2022/12/24 09:00:14;;;;;;;5.18;1.50;;;11.60;99.90;;;11.62;100.00;100685.66;5203783;28;20578;-59
2022/12/24 09:02:46;;;;;;;5.25;1.20;;;11.60;99.90;;;11.62;100.00;100688.25;5203952;28;20037;-61
2022/12/24 09:05:19;;;;;;;6.75;1.58;;;11.50;99.90;;;11.60;100.00;100689.91;5203592;28;20091;-59
2022/12/24 09:07:51;;;;;;;6.28;1.70;;;11.60;99.90;;;11.59;100.00;100685.53;5203151;28;20060;-59
2022/12/24 09:10:25;;;;;;;2.63;1.40;;;11.50;99.90;;;11.57;100.00;100693.34;5203459;28;20054;-60
2022/12/24 09:12:57;;;;;;;5.40;1.20;;;11.50;99.90;;;11.54;100.00;100695.88;5203650;28;20045;-58
2022/12/24 09:15:29;;;;;;;5.63;1.55;;;11.50;99.90;;;11.51;100.00;100695.78;5183766;28;20046;-59
2022/12/24 09:18:02;;;;;;;3.38;1.27;;;11.50;99.90;;;11.48;100.00;100700.91;5183633;28;20046;-58
2022/12/24 09:20:34;;;;;;;3.97;1.30;;;11.50;99.90;;;11.47;100.00;100712.16;5183714;28;20046;-60
2022/12/24 09:23:06;;;;;;;3.28;1.73;;;11.50;99.90;;;11.49;100.00;100715.72;5194622;28;20335;-60
2022/12/24 09:25:43;;;;;;;5.40;1.50;;;11.50;99.90;;;11.49;100.00;100723.56;5201331;28;20045;-58
2022/12/24 09:28:15;;;;;;;5.30;1.50;;;11.50;99.90;;;11.50;100.00;100730.53;5201803;28;20045;-58
2022/12/24 09:31:00;;;;;;;4.40;1.58;;;11.50;99.90;;;11.51;100.00;100726.22;5183540;28;20406;-57
2022/12/24 09:33:34;;;;;;;3.10;1.20;;;11.50;99.90;;;11.52;100.00;100739.31;5206669;28;20421;-59
2022/12/24 09:36:07;;;;;;;4.28;1.23;;;11.50;99.90;;;11.54;100.00;100742.88;5205415;28;20055;-59
2022/12/24 09:38:40;;;;;;;7.15;1.55;;;11.50;99.90;;;11.54;100.00;100753.31;5206337;28;20046;-59
2022/12/24 09:41:15;;;;;;;5.85;1.50;;;11.50;99.90;;;11.55;100.00;100755.06;5207479;28;20520;-58
2022/12/24 09:43:52;;;;;;;6.95;1.38;;;11.50;99.90;;;11.56;100.00;100763.78;5207980;28;20060;-58
2022/12/24 09:46:30;;;;;;;4.88;1.50;;;11.50;99.90;;;11.57;100.00;100757.72;5207903;28;20043;-58
2022/12/24 09:49:10;;;;;;;7.13;2.20;;;11.50;99.90;;;11.77;100.00;100767.03;5207682;28;20524;-58
2022/12/24 09:51:47;;;;;;;7.15;1.58;;;11.80;99.90;;;11.87;100.00;100769.13;5189998;28;20053;-61
2022/12/24 09:54:26;;;;;;;7.07;1.67;;;11.80;99.90;;;11.86;100.00;100759.47;5190176;28;20049;-60
2022/12/24 09:57:06;;;;;;;5.95;1.35;;;11.80;99.90;;;11.85;100.00;100751.59;5208047;28;20041;-58
2022/12/24 09:59:42;;;;;;;7.20;1.45;;;11.80;99.90;;;11.83;100.00;100761.13;5207309;28;20055;-58
2022/12/24 10:02:19;;;;;;;4.78;1.40;;;11.80;99.90;;;11.82;100.00;100765.47;5206664;28;20041;-58
2022/12/24 10:04:51;;;;;;;5.10;1.52;;;11.80;99.90;;;11.81;100.00;100765.44;5205929;28;20054;-60
2022/12/24 10:07:36;;;;;;;5.30;1.20;;;11.80;99.90;;;11.82;100.00;100775.03;5205353;28;20425;-59
2022/12/24 10:10:20;;;;;;;5.03;1.67;;;11.80;99.90;;;11.83;100.00;100771.59;5205860;28;20045;-59
2022/12/24 10:13:03;;;;;;;5.57;1.58;;;11.80;99.90;;;11.82;100.00;100785.50;5206925;28;20054;-59
2022/12/24 10:15:41;;;;;;;5.18;1.40;;;11.80;99.90;;;11.82;100.00;100785.50;5207254;28;20103;-57
2022/12/24 10:18:27;;;;;;;5.07;1.33;;;11.80;99.90;;;11.79;100.00;100778.41;5204078;28;20033;-58
2022/12/24 10:21:07;;;;;;;5.32;1.42;;;11.70;99.90;;;11.77;100.00;100784.44;5200234;28;20049;-59
2022/12/24 10:23:47;;;;;;;5.95;1.52;;;11.70;99.90;;;11.75;100.00;100786.13;5207029;28;20047;-59
2022/12/24 10:26:27;;;;;;;6.00;1.30;;;11.70;99.90;;;11.76;100.00;100785.28;5206660;28;20084;-58
2022/12/24 10:29:06;;;;;;;5.82;1.30;;;11.70;99.90;;;11.77;100.00;100780.09;5206780;28;20041;-60
2022/12/24 10:31:48;;;;;;;7.75;1.73;;;11.70;99.90;;;11.79;100.00;100777.50;5206882;28;20041;-59
2022/12/24 10:34:24;;;;;;;4.75;1.65;;;11.70;99.90;;;11.80;100.00;100779.28;5206688;28;20049;-59
2022/12/24 10:36:57;;;;;;;6.30;1.25;;;11.70;99.90;;;11.82;100.00;100786.38;5206563;28;20052;-59
2022/12/24 10:39:29;;;;;;;5.28;1.45;;;11.80;99.90;;;11.85;100.00;100789.06;5188810;28;20525;-59
2022/12/24 10:42:01;;;;;;;6.95;1.70;;;11.80;99.90;;;11.88;100.00;100785.66;5205750;28;20056;-59
2022/12/24 10:44:35;;;;;;;5.47;1.13;;;11.80;99.90;;;11.91;100.00;100780.53;5206107;28;20100;-61